sensor_id;sensor_type;location;lat;lon;timestamp;P1;durP1;ratioP1;P2;durP2;ratioP2
12896;SDS011;6516;35.028;32.372;2022-11-20T00:01:10;11.45;;;4.20;;
12896;SDS011;6516;35.028;32.372;2022-11-20T00:03:39;8.77;;;4.03;;
12896;SDS011;6516;35.028;32.372;2022-11-20T00:06:09;10.70;;;4.18;;
12896;SDS011;6516;35.028;32.372;2022-11-20T00:08:40;11.77;;;4.57;;
12896;SDS011;6516;35.028;32.372;2022-11-20T00:11:09;10.98;;;4.05;;
12896;SDS011;6516;35.028;32.372;2022-11-20T00:13:38;9.63;;;4.10;;
12896;SDS011;6516;35.028;32.372;2022-11-20T00:16:07;7.75;;;4.40;;
12896;SDS011;6516;35.028;32.372;2022-11-20T00:18:38;8.75;;;4.10;;
12896;SDS011;6516;35.028;32.372;2022-11-20T00:21:09;8.73;;;4.47;;
12896;SDS011;6516;35.028;32.372;2022-11-20T00:23:41;11.25;;;4.47;;
12896;SDS011;6516;35.028;32.372;2022-11-20T00:26:10;10.20;;;4.20;;
12896;SDS011;6516;35.028;32.372;2022-11-20T00:28:39;10.05;;;4.70;;
12896;SDS011;6516;35.028;32.372;2022-11-20T00:31:08;7.95;;;4.15;;
12896;SDS011;6516;35.028;32.372;2022-11-20T00:33:38;9.23;;;4.30;;
12896;SDS011;6516;35.028;32.372;2022-11-20T00:36:07;8.02;;;3.90;;
12896;SDS011;6516;35.028;32.372;2022-11-20T00:38:36;8.45;;;4.10;;
12896;SDS011;6516;35.028;32.372;2022-11-20T00:41:07;10.35;;;4.50;;
12896;SDS011;6516;35.028;32.372;2022-11-20T00:43:37;9.07;;;4.60;;
12896;SDS011;6516;35.028;32.372;2022-11-20T00:46:05;9.43;;;4.37;;
12896;SDS011;6516;35.028;32.372;2022-11-20T00:48:35;7.97;;;4.57;;
12896;SDS011;6516;35.028;32.372;2022-11-20T00:51:03;8.85;;;4.38;;
12896;SDS011;6516;35.028;32.372;2022-11-20T00:53:31;8.23;;;4.57;;
12896;SDS011;6516;35.028;32.372;2022-11-20T00:55:59;9.13;;;5.07;;
12896;SDS011;6516;35.028;32.372;2022-11-20T00:58:32;9.03;;;4.50;;
12896;SDS011;6516;35.028;32.372;2022-11-20T01:01:02;9.82;;;4.90;;
12896;SDS011;6516;35.028;32.372;2022-11-20T01:03:32;7.55;;;4.72;;
12896;SDS011;6516;35.028;32.372;2022-11-20T01:06:00;10.00;;;4.60;;
12896;SDS011;6516;35.028;32.372;2022-11-20T01:08:30;7.93;;;4.53;;
12896;SDS011;6516;35.028;32.372;2022-11-20T01:10:59;10.17;;;4.53;;
12896;SDS011;6516;35.028;32.372;2022-11-20T01:13:28;12.15;;;4.85;;
12896;SDS011;6516;35.028;32.372;2022-11-20T01:16:05;8.57;;;4.38;;
12896;SDS011;6516;35.028;32.372;2022-11-20T01:18:35;8.00;;;4.55;;
12896;SDS011;6516;35.028;32.372;2022-11-20T01:21:05;7.15;;;4.60;;
12896;SDS011;6516;35.028;32.372;2022-11-20T01:23:36;7.83;;;4.33;;
12896;SDS011;6516;35.028;32.372;2022-11-20T01:26:07;8.93;;;4.38;;
12896;SDS011;6516;35.028;32.372;2022-11-20T01:28:38;9.65;;;4.30;;
12896;SDS011;6516;35.028;32.372;2022-11-20T01:31:16;9.70;;;4.50;;
12896;SDS011;6516;35.028;32.372;2022-11-20T01:33:46;10.45;;;4.72;;
12896;SDS011;6516;35.028;32.372;2022-11-20T01:36:16;9.17;;;4.17;;
12896;SDS011;6516;35.028;32.372;2022-11-20T01:38:46;9.50;;;4.80;;
12896;SDS011;6516;35.028;32.372;2022-11-20T01:41:14;10.77;;;4.65;;
12896;SDS011;6516;35.028;32.372;2022-11-20T01:43:57;9.90;;;4.15;;
12896;SDS011;6516;35.028;32.372;2022-11-20T01:46:25;8.50;;;4.53;;
12896;SDS011;6516;35.028;32.372;2022-11-20T01:48:54;8.80;;;4.57;;
12896;SDS011;6516;35.028;32.372;2022-11-20T01:51:27;8.00;;;4.80;;
12896;SDS011;6516;35.028;32.372;2022-11-20T01:54:02;9.75;;;4.45;;
12896;SDS011;6516;35.028;32.372;2022-11-20T01:56:35;7.80;;;4.78;;
12896;SDS011;6516;35.028;32.372;2022-11-20T01:59:08;10.50;;;5.07;;
12896;SDS011;6516;35.028;32.372;2022-11-20T02:01:39;12.90;;;5.50;;
12896;SDS011;6516;35.028;32.372;2022-11-20T02:04:07;10.30;;;5.30;;
12896;SDS011;6516;35.028;32.372;2022-11-20T02:06:38;9.15;;;4.78;;
12896;SDS011;6516;35.028;32.372;2022-11-20T02:09:11;8.63;;;4.47;;
12896;SDS011;6516;35.028;32.372;2022-11-20T02:11:40;9.35;;;5.00;;
12896;SDS011;6516;35.028;32.372;2022-11-20T02:14:10;9.13;;;4.90;;
12896;SDS011;6516;35.028;32.372;2022-11-20T02:16:37;11.85;;;4.85;;
12896;SDS011;6516;35.028;32.372;2022-11-20T02:19:15;9.50;;;4.75;;
12896;SDS011;6516;35.028;32.372;2022-11-20T02:21:52;8.70;;;5.13;;
12896;SDS011;6516;35.028;32.372;2022-11-20T02:24:30;10.23;;;4.95;;
12896;SDS011;6516;35.028;32.372;2022-11-20T02:26:59;8.67;;;4.60;;
12896;SDS011;6516;35.028;32.372;2022-11-20T02:29:44;8.88;;;4.70;;
12896;SDS011;6516;35.028;32.372;2022-11-20T02:32:20;8.60;;;4.60;;
12896;SDS011;6516;35.028;32.372;2022-11-20T02:34:49;10.05;;;4.07;;
12896;SDS011;6516;35.028;32.372;2022-11-20T02:37:17;12.13;;;4.97;;
12896;SDS011;6516;35.028;32.372;2022-11-20T02:39:48;8.10;;;4.60;;
12896;SDS011;6516;35.028;32.372;2022-11-20T02:42:18;7.75;;;4.15;;
12896;SDS011;6516;35.028;32.372;2022-11-20T02:44:46;10.02;;;4.60;;
12896;SDS011;6516;35.028;32.372;2022-11-20T02:47:13;7.40;;;4.03;;
12896;SDS011;6516;35.028;32.372;2022-11-20T02:49:41;7.50;;;3.80;;
12896;SDS011;6516;35.028;32.372;2022-11-20T02:52:09;9.60;;;4.07;;
12896;SDS011;6516;35.028;32.372;2022-11-20T02:54:36;10.50;;;3.67;;
12896;SDS011;6516;35.028;32.372;2022-11-20T02:57:06;8.88;;;3.70;;
12896;SDS011;6516;35.028;32.372;2022-11-20T02:59:33;8.00;;;3.72;;
12896;SDS011;6516;35.028;32.372;2022-11-20T03:02:01;7.85;;;3.55;;
12896;SDS011;6516;35.028;32.372;2022-11-20T03:04:30;8.77;;;4.00;;
12896;SDS011;6516;35.028;32.372;2022-11-20T03:06:58;9.35;;;3.15;;
12896;SDS011;6516;35.028;32.372;2022-11-20T03:09:25;7.90;;;3.58;;
12896;SDS011;6516;35.028;32.372;2022-11-20T03:11:53;8.02;;;3.78;;
12896;SDS011;6516;35.028;32.372;2022-11-20T03:14:22;6.53;;;3.53;;
12896;SDS011;6516;35.028;32.372;2022-11-20T03:16:50;6.80;;;3.33;;
12896;SDS011;6516;35.028;32.372;2022-11-20T03:19:18;7.28;;;3.53;;
12896;SDS011;6516;35.028;32.372;2022-11-20T03:21:46;8.25;;;3.25;;
12896;SDS011;6516;35.028;32.372;2022-11-20T03:24:13;8.57;;;3.33;;
12896;SDS011;6516;35.028;32.372;2022-11-20T03:26:42;8.43;;;3.88;;
12896;SDS011;6516;35.028;32.372;2022-11-20T03:29:09;5.77;;;3.40;;
12896;SDS011;6516;35.028;32.372;2022-11-20T03:31:39;9.52;;;3.47;;
12896;SDS011;6516;35.028;32.372;2022-11-20T03:34:08;9.23;;;3.63;;
12896;SDS011;6516;35.028;32.372;2022-11-20T03:36:37;7.50;;;3.30;;
12896;SDS011;6516;35.028;32.372;2022-11-20T03:39:06;7.88;;;3.22;;
12896;SDS011;6516;35.028;32.372;2022-11-20T03:41:35;7.97;;;3.13;;
12896;SDS011;6516;35.028;32.372;2022-11-20T03:44:06;7.72;;;3.05;;
12896;SDS011;6516;35.028;32.372;2022-11-20T03:46:36;7.03;;;3.45;;
12896;SDS011;6516;35.028;32.372;2022-11-20T03:49:06;7.82;;;3.28;;
12896;SDS011;6516;35.028;32.372;2022-11-20T03:51:34;6.38;;;3.22;;
12896;SDS011;6516;35.028;32.372;2022-11-20T03:54:04;7.37;;;3.00;;
12896;SDS011;6516;35.028;32.372;2022-11-20T03:56:34;7.05;;;3.30;;
12896;SDS011;6516;35.028;32.372;2022-11-20T03:59:04;8.55;;;3.38;;
12896;SDS011;6516;35.028;32.372;2022-11-20T04:01:33;8.52;;;4.05;;
12896;SDS011;6516;35.028;32.372;2022-11-20T04:04:03;8.50;;;3.30;;
12896;SDS011;6516;35.028;32.372;2022-11-20T04:06:34;7.40;;;2.80;;
12896;SDS011;6516;35.028;32.372;2022-11-20T04:09:04;5.90;;;2.70;;
12896;SDS011;6516;35.028;32.372;2022-11-20T04:11:33;8.43;;;3.20;;
12896;SDS011;6516;35.028;32.372;2022-11-20T04:14:04;6.35;;;3.05;;
12896;SDS011;6516;35.028;32.372;2022-11-20T04:16:34;7.85;;;3.00;;
12896;SDS011;6516;35.028;32.372;2022-11-20T04:19:03;8.93;;;2.73;;
12896;SDS011;6516;35.028;32.372;2022-11-20T04:21:38;6.57;;;2.75;;
12896;SDS011;6516;35.028;32.372;2022-11-20T04:24:06;6.18;;;3.00;;
12896;SDS011;6516;35.028;32.372;2022-11-20T04:26:35;9.82;;;3.38;;
12896;SDS011;6516;35.028;32.372;2022-11-20T04:29:03;8.10;;;3.63;;
12896;SDS011;6516;35.028;32.372;2022-11-20T04:31:32;9.50;;;3.20;;
12896;SDS011;6516;35.028;32.372;2022-11-20T04:34:01;7.97;;;3.30;;
12896;SDS011;6516;35.028;32.372;2022-11-20T04:36:32;6.97;;;3.40;;
12896;SDS011;6516;35.028;32.372;2022-11-20T04:39:02;8.52;;;3.10;;
12896;SDS011;6516;35.028;32.372;2022-11-20T04:41:33;6.40;;;2.85;;
12896;SDS011;6516;35.028;32.372;2022-11-20T04:44:03;7.87;;;3.03;;
12896;SDS011;6516;35.028;32.372;2022-11-20T04:46:33;6.50;;;3.25;;
12896;SDS011;6516;35.028;32.372;2022-11-20T04:49:04;6.63;;;2.80;;
12896;SDS011;6516;35.028;32.372;2022-11-20T04:51:34;8.15;;;3.55;;
12896;SDS011;6516;35.028;32.372;2022-11-20T04:54:02;7.75;;;3.17;;
12896;SDS011;6516;35.028;32.372;2022-11-20T04:56:30;9.13;;;3.20;;
12896;SDS011;6516;35.028;32.372;2022-11-20T04:58:59;6.13;;;3.38;;
12896;SDS011;6516;35.028;32.372;2022-11-20T05:01:28;6.55;;;3.10;;
12896;SDS011;6516;35.028;32.372;2022-11-20T05:03:56;9.73;;;3.53;;
12896;SDS011;6516;35.028;32.372;2022-11-20T05:06:23;9.13;;;3.33;;
12896;SDS011;6516;35.028;32.372;2022-11-20T05:08:53;5.77;;;2.83;;
12896;SDS011;6516;35.028;32.372;2022-11-20T05:11:21;6.13;;;2.88;;
12896;SDS011;6516;35.028;32.372;2022-11-20T05:13:49;9.85;;;3.30;;
12896;SDS011;6516;35.028;32.372;2022-11-20T05:16:18;7.03;;;3.00;;
12896;SDS011;6516;35.028;32.372;2022-11-20T05:18:48;5.20;;;3.05;;
12896;SDS011;6516;35.028;32.372;2022-11-20T05:21:16;6.00;;;3.00;;
12896;SDS011;6516;35.028;32.372;2022-11-20T05:23:45;6.22;;;2.95;;
12896;SDS011;6516;35.028;32.372;2022-11-20T05:26:15;6.88;;;3.15;;
12896;SDS011;6516;35.028;32.372;2022-11-20T05:28:46;6.13;;;3.50;;
12896;SDS011;6516;35.028;32.372;2022-11-20T05:31:14;7.28;;;3.28;;
12896;SDS011;6516;35.028;32.372;2022-11-20T05:33:44;7.80;;;3.10;;
12896;SDS011;6516;35.028;32.372;2022-11-20T05:36:13;7.07;;;3.30;;
12896;SDS011;6516;35.028;32.372;2022-11-20T05:38:43;9.68;;;2.97;;
12896;SDS011;6516;35.028;32.372;2022-11-20T05:41:12;6.93;;;3.05;;
12896;SDS011;6516;35.028;32.372;2022-11-20T05:43:44;8.02;;;3.47;;
12896;SDS011;6516;35.028;32.372;2022-11-20T05:46:13;6.53;;;3.00;;
12896;SDS011;6516;35.028;32.372;2022-11-20T05:48:43;10.23;;;2.92;;
12896;SDS011;6516;35.028;32.372;2022-11-20T05:51:13;5.38;;;2.95;;
12896;SDS011;6516;35.028;32.372;2022-11-20T05:53:42;5.88;;;2.90;;
12896;SDS011;6516;35.028;32.372;2022-11-20T05:56:12;7.30;;;3.15;;
12896;SDS011;6516;35.028;32.372;2022-11-20T05:58:44;7.03;;;3.10;;
12896;SDS011;6516;35.028;32.372;2022-11-20T06:01:14;5.95;;;2.70;;
12896;SDS011;6516;35.028;32.372;2022-11-20T06:03:46;5.85;;;2.65;;
12896;SDS011;6516;35.028;32.372;2022-11-20T06:06:15;5.60;;;2.92;;
12896;SDS011;6516;35.028;32.372;2022-11-20T06:08:44;5.57;;;2.80;;
12896;SDS011;6516;35.028;32.372;2022-11-20T06:11:13;4.93;;;2.80;;
12896;SDS011;6516;35.028;32.372;2022-11-20T06:13:43;6.25;;;2.95;;
12896;SDS011;6516;35.028;32.372;2022-11-20T06:16:13;5.55;;;2.60;;
12896;SDS011;6516;35.028;32.372;2022-11-20T06:18:46;5.97;;;3.20;;
12896;SDS011;6516;35.028;32.372;2022-11-20T06:21:16;6.45;;;2.78;;
12896;SDS011;6516;35.028;32.372;2022-11-20T06:23:45;6.27;;;2.53;;
12896;SDS011;6516;35.028;32.372;2022-11-20T06:26:16;5.80;;;2.80;;
12896;SDS011;6516;35.028;32.372;2022-11-20T06:28:46;5.80;;;2.60;;
12896;SDS011;6516;35.028;32.372;2022-11-20T06:31:15;6.75;;;2.63;;
12896;SDS011;6516;35.028;32.372;2022-11-20T06:33:45;6.25;;;2.65;;
12896;SDS011;6516;35.028;32.372;2022-11-20T06:36:14;5.93;;;2.63;;
12896;SDS011;6516;35.028;32.372;2022-11-20T06:38:44;5.13;;;2.80;;
12896;SDS011;6516;35.028;32.372;2022-11-20T06:41:13;5.90;;;2.60;;
12896;SDS011;6516;35.028;32.372;2022-11-20T06:43:44;4.95;;;2.50;;
12896;SDS011;6516;35.028;32.372;2022-11-20T06:46:12;7.82;;;2.70;;
12896;SDS011;6516;35.028;32.372;2022-11-20T06:48:43;5.97;;;2.50;;
12896;SDS011;6516;35.028;32.372;2022-11-20T06:51:13;5.55;;;2.38;;
12896;SDS011;6516;35.028;32.372;2022-11-20T06:53:42;5.18;;;2.42;;
12896;SDS011;6516;35.028;32.372;2022-11-20T06:56:10;6.93;;;2.60;;
12896;SDS011;6516;35.028;32.372;2022-11-20T06:58:39;5.15;;;2.70;;
12896;SDS011;6516;35.028;32.372;2022-11-20T07:01:09;6.10;;;2.57;;
12896;SDS011;6516;35.028;32.372;2022-11-20T07:03:39;8.68;;;2.88;;
12896;SDS011;6516;35.028;32.372;2022-11-20T07:06:08;6.75;;;2.60;;
12896;SDS011;6516;35.028;32.372;2022-11-20T07:08:36;6.28;;;2.83;;
12896;SDS011;6516;35.028;32.372;2022-11-20T07:11:05;6.60;;;2.63;;
12896;SDS011;6516;35.028;32.372;2022-11-20T07:13:33;6.03;;;2.60;;
12896;SDS011;6516;35.028;32.372;2022-11-20T07:16:04;6.90;;;2.75;;
12896;SDS011;6516;35.028;32.372;2022-11-20T07:18:33;6.72;;;2.67;;
12896;SDS011;6516;35.028;32.372;2022-11-20T07:21:02;5.65;;;2.60;;
12896;SDS011;6516;35.028;32.372;2022-11-20T07:23:31;5.68;;;2.38;;
12896;SDS011;6516;35.028;32.372;2022-11-20T07:26:02;6.60;;;2.23;;
12896;SDS011;6516;35.028;32.372;2022-11-20T07:28:31;6.60;;;2.85;;
12896;SDS011;6516;35.028;32.372;2022-11-20T07:31:00;8.85;;;2.78;;
12896;SDS011;6516;35.028;32.372;2022-11-20T07:33:29;9.20;;;2.50;;
12896;SDS011;6516;35.028;32.372;2022-11-20T07:35:58;8.05;;;2.90;;
12896;SDS011;6516;35.028;32.372;2022-11-20T07:38:26;7.23;;;3.03;;
12896;SDS011;6516;35.028;32.372;2022-11-20T07:40:54;6.78;;;2.90;;
12896;SDS011;6516;35.028;32.372;2022-11-20T07:43:22;5.97;;;2.33;;
12896;SDS011;6516;35.028;32.372;2022-11-20T07:45:50;7.65;;;2.80;;
12896;SDS011;6516;35.028;32.372;2022-11-20T07:48:18;5.03;;;2.40;;
12896;SDS011;6516;35.028;32.372;2022-11-20T07:50:47;6.40;;;2.80;;
12896;SDS011;6516;35.028;32.372;2022-11-20T07:53:15;7.78;;;2.70;;
12896;SDS011;6516;35.028;32.372;2022-11-20T07:55:47;9.75;;;2.60;;
12896;SDS011;6516;35.028;32.372;2022-11-20T07:58:17;8.10;;;2.60;;
12896;SDS011;6516;35.028;32.372;2022-11-20T08:00:45;5.40;;;2.47;;
12896;SDS011;6516;35.028;32.372;2022-11-20T08:03:13;6.07;;;2.67;;
12896;SDS011;6516;35.028;32.372;2022-11-20T08:05:41;8.88;;;3.08;;
12896;SDS011;6516;35.028;32.372;2022-11-20T08:08:10;8.70;;;2.40;;
12896;SDS011;6516;35.028;32.372;2022-11-20T08:10:38;7.80;;;2.42;;
12896;SDS011;6516;35.028;32.372;2022-11-20T08:13:05;6.00;;;2.88;;
12896;SDS011;6516;35.028;32.372;2022-11-20T08:15:52;8.23;;;2.77;;
12896;SDS011;6516;35.028;32.372;2022-11-20T08:18:20;6.57;;;2.58;;
12896;SDS011;6516;35.028;32.372;2022-11-20T08:20:47;10.68;;;2.70;;
12896;SDS011;6516;35.028;32.372;2022-11-20T08:23:16;6.82;;;2.53;;
12896;SDS011;6516;35.028;32.372;2022-11-20T08:25:48;6.88;;;2.67;;
12896;SDS011;6516;35.028;32.372;2022-11-20T08:28:17;8.10;;;2.60;;
12896;SDS011;6516;35.028;32.372;2022-11-20T08:30:45;7.05;;;2.40;;
12896;SDS011;6516;35.028;32.372;2022-11-20T08:33:13;8.75;;;2.40;;
12896;SDS011;6516;35.028;32.372;2022-11-20T08:35:42;5.13;;;2.63;;
12896;SDS011;6516;35.028;32.372;2022-11-20T08:38:10;7.63;;;2.47;;
12896;SDS011;6516;35.028;32.372;2022-11-20T08:40:39;5.93;;;2.33;;
12896;SDS011;6516;35.028;32.372;2022-11-20T08:43:27;7.00;;;2.50;;
12896;SDS011;6516;35.028;32.372;2022-11-20T08:45:56;6.97;;;2.33;;
12896;SDS011;6516;35.028;32.372;2022-11-20T08:48:23;5.40;;;2.80;;
12896;SDS011;6516;35.028;32.372;2022-11-20T08:50:51;7.20;;;2.40;;
12896;SDS011;6516;35.028;32.372;2022-11-20T08:53:19;6.77;;;2.27;;
12896;SDS011;6516;35.028;32.372;2022-11-20T08:55:48;6.45;;;2.40;;
12896;SDS011;6516;35.028;32.372;2022-11-20T08:58:15;6.03;;;2.40;;
12896;SDS011;6516;35.028;32.372;2022-11-20T09:00:43;5.93;;;2.47;;
12896;SDS011;6516;35.028;32.372;2022-11-20T09:03:11;6.85;;;2.75;;
12896;SDS011;6516;35.028;32.372;2022-11-20T09:05:39;9.80;;;2.90;;
12896;SDS011;6516;35.028;32.372;2022-11-20T09:08:08;7.55;;;2.40;;
12896;SDS011;6516;35.028;32.372;2022-11-20T09:10:35;6.55;;;2.50;;
12896;SDS011;6516;35.028;32.372;2022-11-20T09:13:06;7.72;;;2.85;;
12896;SDS011;6516;35.028;32.372;2022-11-20T09:15:34;8.57;;;2.80;;
12896;SDS011;6516;35.028;32.372;2022-11-20T09:18:02;5.27;;;2.63;;
12896;SDS011;6516;35.028;32.372;2022-11-20T09:20:31;9.88;;;2.42;;
12896;SDS011;6516;35.028;32.372;2022-11-20T09:22:58;5.78;;;2.65;;
12896;SDS011;6516;35.028;32.372;2022-11-20T09:25:26;6.88;;;2.55;;
12896;SDS011;6516;35.028;32.372;2022-11-20T09:27:55;6.00;;;2.70;;
12896;SDS011;6516;35.028;32.372;2022-11-20T09:30:24;7.57;;;2.60;;
12896;SDS011;6516;35.028;32.372;2022-11-20T09:32:52;5.45;;;2.80;;
12896;SDS011;6516;35.028;32.372;2022-11-20T09:35:20;8.57;;;2.83;;
12896;SDS011;6516;35.028;32.372;2022-11-20T09:37:48;6.45;;;2.70;;
12896;SDS011;6516;35.028;32.372;2022-11-20T09:40:18;6.93;;;2.72;;
12896;SDS011;6516;35.028;32.372;2022-11-20T09:42:50;6.97;;;2.90;;
12896;SDS011;6516;35.028;32.372;2022-11-20T09:45:29;8.40;;;2.85;;
12896;SDS011;6516;35.028;32.372;2022-11-20T09:51:26;7.25;;;2.80;;
12896;SDS011;6516;35.028;32.372;2022-11-20T09:54:07;6.85;;;3.00;;
12896;SDS011;6516;35.028;32.372;2022-11-20T09:56:45;8.47;;;2.73;;
12896;SDS011;6516;35.028;32.372;2022-11-20T09:59:26;7.70;;;2.67;;
12896;SDS011;6516;35.028;32.372;2022-11-20T10:02:02;8.10;;;2.50;;
12896;SDS011;6516;35.028;32.372;2022-11-20T10:04:44;5.22;;;2.40;;
12896;SDS011;6516;35.028;32.372;2022-11-20T10:07:21;6.05;;;3.08;;
12896;SDS011;6516;35.028;32.372;2022-11-20T10:09:56;7.73;;;2.83;;
12896;SDS011;6516;35.028;32.372;2022-11-20T10:12:27;9.00;;;2.90;;
12896;SDS011;6516;35.028;32.372;2022-11-20T10:15:10;7.55;;;2.75;;
12896;SDS011;6516;35.028;32.372;2022-11-20T10:17:58;7.72;;;2.72;;
12896;SDS011;6516;35.028;32.372;2022-11-20T10:20:40;6.20;;;2.70;;
12896;SDS011;6516;35.028;32.372;2022-11-20T10:23:22;11.97;;;3.33;;
12896;SDS011;6516;35.028;32.372;2022-11-20T10:26:14;7.35;;;2.53;;
12896;SDS011;6516;35.028;32.372;2022-11-20T10:28:49;8.20;;;2.70;;
12896;SDS011;6516;35.028;32.372;2022-11-20T10:31:34;6.18;;;2.65;;
12896;SDS011;6516;35.028;32.372;2022-11-20T10:34:12;5.68;;;2.60;;
12896;SDS011;6516;35.028;32.372;2022-11-20T10:36:49;7.87;;;3.27;;
12896;SDS011;6516;35.028;32.372;2022-11-20T10:39:25;6.38;;;2.60;;
12896;SDS011;6516;35.028;32.372;2022-11-20T10:42:02;7.70;;;2.92;;
12896;SDS011;6516;35.028;32.372;2022-11-20T10:44:35;5.40;;;2.33;;
12896;SDS011;6516;35.028;32.372;2022-11-20T10:47:22;7.45;;;2.80;;
12896;SDS011;6516;35.028;32.372;2022-11-20T10:49:54;8.30;;;2.60;;
12896;SDS011;6516;35.028;32.372;2022-11-20T10:52:26;5.20;;;2.35;;
12896;SDS011;6516;35.028;32.372;2022-11-20T10:55:07;7.28;;;2.67;;
12896;SDS011;6516;35.028;32.372;2022-11-20T10:57:52;7.35;;;2.80;;
12896;SDS011;6516;35.028;32.372;2022-11-20T11:00:30;6.07;;;2.50;;
12896;SDS011;6516;35.028;32.372;2022-11-20T11:02:58;7.67;;;2.80;;
12896;SDS011;6516;35.028;32.372;2022-11-20T11:05:39;8.65;;;2.97;;
12896;SDS011;6516;35.028;32.372;2022-11-20T11:08:14;9.55;;;2.88;;
12896;SDS011;6516;35.028;32.372;2022-11-20T11:10:46;5.97;;;2.58;;
12896;SDS011;6516;35.028;32.372;2022-11-20T11:13:20;5.97;;;2.63;;
12896;SDS011;6516;35.028;32.372;2022-11-20T11:15:49;7.23;;;2.90;;
12896;SDS011;6516;35.028;32.372;2022-11-20T11:18:23;6.60;;;2.83;;
12896;SDS011;6516;35.028;32.372;2022-11-20T11:20:55;6.68;;;2.58;;
12896;SDS011;6516;35.028;32.372;2022-11-20T11:23:30;8.35;;;2.97;;
12896;SDS011;6516;35.028;32.372;2022-11-20T11:26:01;6.20;;;2.78;;
12896;SDS011;6516;35.028;32.372;2022-11-20T11:28:31;6.83;;;2.77;;
12896;SDS011;6516;35.028;32.372;2022-11-20T11:31:01;6.03;;;2.97;;
12896;SDS011;6516;35.028;32.372;2022-11-20T11:33:29;6.63;;;2.80;;
12896;SDS011;6516;35.028;32.372;2022-11-20T11:36:01;6.43;;;3.15;;
12896;SDS011;6516;35.028;32.372;2022-11-20T11:38:41;7.65;;;2.70;;
12896;SDS011;6516;35.028;32.372;2022-11-20T11:41:12;5.70;;;2.33;;
12896;SDS011;6516;35.028;32.372;2022-11-20T11:43:51;5.90;;;2.75;;
12896;SDS011;6516;35.028;32.372;2022-11-20T11:46:38;5.85;;;2.55;;
12896;SDS011;6516;35.028;32.372;2022-11-20T11:49:15;5.32;;;2.40;;
12896;SDS011;6516;35.028;32.372;2022-11-20T11:51:50;5.20;;;2.70;;
12896;SDS011;6516;35.028;32.372;2022-11-20T11:54:31;6.27;;;2.60;;
12896;SDS011;6516;35.028;32.372;2022-11-20T11:57:07;8.20;;;2.42;;
12896;SDS011;6516;35.028;32.372;2022-11-20T11:59:46;6.07;;;2.30;;
12896;SDS011;6516;35.028;32.372;2022-11-20T12:02:29;7.47;;;2.55;;
12896;SDS011;6516;35.028;32.372;2022-11-20T12:05:05;6.53;;;2.50;;
12896;SDS011;6516;35.028;32.372;2022-11-20T12:07:45;5.70;;;2.37;;
12896;SDS011;6516;35.028;32.372;2022-11-20T12:10:20;5.72;;;2.28;;
12896;SDS011;6516;35.028;32.372;2022-11-20T12:12:54;6.30;;;2.40;;
12896;SDS011;6516;35.028;32.372;2022-11-20T12:15:29;6.38;;;2.20;;
12896;SDS011;6516;35.028;32.372;2022-11-20T12:18:00;8.75;;;2.65;;
12896;SDS011;6516;35.028;32.372;2022-11-20T12:20:29;7.13;;;2.80;;
12896;SDS011;6516;35.028;32.372;2022-11-20T12:23:07;10.90;;;2.75;;
12896;SDS011;6516;35.028;32.372;2022-11-20T12:25:45;6.43;;;2.63;;
12896;SDS011;6516;35.028;32.372;2022-11-20T12:31:18;4.82;;;2.42;;
12896;SDS011;6516;35.028;32.372;2022-11-20T12:34:23;9.33;;;2.70;;
12896;SDS011;6516;35.028;32.372;2022-11-20T12:37:08;10.73;;;2.70;;
12896;SDS011;6516;35.028;32.372;2022-11-20T12:39:52;8.35;;;2.80;;
12896;SDS011;6516;35.028;32.372;2022-11-20T12:42:29;8.32;;;2.70;;
12896;SDS011;6516;35.028;32.372;2022-11-20T12:45:46;6.75;;;2.72;;
12896;SDS011;6516;35.028;32.372;2022-11-20T12:48:35;7.03;;;3.10;;
12896;SDS011;6516;35.028;32.372;2022-11-20T12:51:17;10.48;;;3.72;;
12896;SDS011;6516;35.028;32.372;2022-11-20T12:54:08;5.20;;;2.60;;
12896;SDS011;6516;35.028;32.372;2022-11-20T12:57:09;7.57;;;3.72;;
12896;SDS011;6516;35.028;32.372;2022-11-20T12:59:50;8.50;;;3.30;;
12896;SDS011;6516;35.028;32.372;2022-11-20T13:02:35;5.63;;;3.33;;
12896;SDS011;6516;35.028;32.372;2022-11-20T13:05:19;7.85;;;3.35;;
12896;SDS011;6516;35.028;32.372;2022-11-20T13:07:52;7.68;;;3.35;;
12896;SDS011;6516;35.028;32.372;2022-11-20T13:10:22;6.55;;;2.85;;
12896;SDS011;6516;35.028;32.372;2022-11-20T13:13:01;7.25;;;3.30;;
12896;SDS011;6516;35.028;32.372;2022-11-20T13:15:44;6.17;;;3.20;;
12896;SDS011;6516;35.028;32.372;2022-11-20T13:18:18;6.90;;;3.20;;
12896;SDS011;6516;35.028;32.372;2022-11-20T13:20:46;5.93;;;3.28;;
12896;SDS011;6516;35.028;32.372;2022-11-20T13:23:22;6.28;;;2.90;;
12896;SDS011;6516;35.028;32.372;2022-11-20T13:26:02;7.18;;;3.08;;
12896;SDS011;6516;35.028;32.372;2022-11-20T13:28:34;6.30;;;3.20;;
12896;SDS011;6516;35.028;32.372;2022-11-20T13:31:02;8.18;;;3.40;;
12896;SDS011;6516;35.028;32.372;2022-11-20T13:33:31;5.32;;;3.03;;
12896;SDS011;6516;35.028;32.372;2022-11-20T13:36:01;5.07;;;3.08;;
12896;SDS011;6516;35.028;32.372;2022-11-20T13:38:40;5.85;;;3.25;;
12896;SDS011;6516;35.028;32.372;2022-11-20T13:41:11;7.60;;;3.50;;
12896;SDS011;6516;35.028;32.372;2022-11-20T13:44:05;8.82;;;3.63;;
12896;SDS011;6516;35.028;32.372;2022-11-20T13:46:40;8.77;;;3.60;;
12896;SDS011;6516;35.028;32.372;2022-11-20T13:49:14;7.90;;;3.45;;
12896;SDS011;6516;35.028;32.372;2022-11-20T13:51:47;7.43;;;3.70;;
12896;SDS011;6516;35.028;32.372;2022-11-20T13:54:37;6.10;;;3.17;;
12896;SDS011;6516;35.028;32.372;2022-11-20T14:00:27;5.53;;;3.65;;
12896;SDS011;6516;35.028;32.372;2022-11-20T14:02:59;8.52;;;3.38;;
12896;SDS011;6516;35.028;32.372;2022-11-20T14:05:38;6.47;;;3.70;;
12896;SDS011;6516;35.028;32.372;2022-11-20T14:08:19;6.27;;;3.60;;
12896;SDS011;6516;35.028;32.372;2022-11-20T14:11:05;6.63;;;3.92;;
12896;SDS011;6516;35.028;32.372;2022-11-20T14:13:39;6.05;;;3.60;;
12896;SDS011;6516;35.028;32.372;2022-11-20T14:16:20;6.70;;;3.58;;
12896;SDS011;6516;35.028;32.372;2022-11-20T14:18:49;8.43;;;4.15;;
12896;SDS011;6516;35.028;32.372;2022-11-20T14:21:26;18.90;;;4.33;;
12896;SDS011;6516;35.028;32.372;2022-11-20T14:24:05;9.10;;;3.90;;
12896;SDS011;6516;35.028;32.372;2022-11-20T14:26:36;9.40;;;3.60;;
12896;SDS011;6516;35.028;32.372;2022-11-20T14:29:10;7.68;;;4.07;;
12896;SDS011;6516;35.028;32.372;2022-11-20T14:31:41;7.47;;;4.15;;
12896;SDS011;6516;35.028;32.372;2022-11-20T14:34:11;7.50;;;3.77;;
12896;SDS011;6516;35.028;32.372;2022-11-20T14:36:43;7.90;;;4.40;;
12896;SDS011;6516;35.028;32.372;2022-11-20T14:39:12;10.25;;;4.65;;
12896;SDS011;6516;35.028;32.372;2022-11-20T14:41:50;9.05;;;4.82;;
12896;SDS011;6516;35.028;32.372;2022-11-20T14:44:18;7.97;;;4.70;;
12896;SDS011;6516;35.028;32.372;2022-11-20T14:46:51;11.43;;;4.87;;
12896;SDS011;6516;35.028;32.372;2022-11-20T14:49:22;9.30;;;4.57;;
12896;SDS011;6516;35.028;32.372;2022-11-20T14:51:58;9.38;;;4.80;;
12896;SDS011;6516;35.028;32.372;2022-11-20T14:54:27;8.57;;;4.57;;
12896;SDS011;6516;35.028;32.372;2022-11-20T14:56:56;10.02;;;4.72;;
12896;SDS011;6516;35.028;32.372;2022-11-20T14:59:25;7.30;;;4.43;;
12896;SDS011;6516;35.028;32.372;2022-11-20T15:01:57;11.75;;;4.70;;
12896;SDS011;6516;35.028;32.372;2022-11-20T15:04:27;8.70;;;4.63;;
12896;SDS011;6516;35.028;32.372;2022-11-20T15:06:55;9.38;;;4.70;;
12896;SDS011;6516;35.028;32.372;2022-11-20T15:09:25;10.02;;;4.78;;
12896;SDS011;6516;35.028;32.372;2022-11-20T15:11:54;9.70;;;4.53;;
12896;SDS011;6516;35.028;32.372;2022-11-20T15:14:24;11.07;;;4.43;;
12896;SDS011;6516;35.028;32.372;2022-11-20T15:16:53;11.02;;;4.55;;
12896;SDS011;6516;35.028;32.372;2022-11-20T15:19:23;7.70;;;4.25;;
12896;SDS011;6516;35.028;32.372;2022-11-20T15:21:52;10.63;;;4.53;;
12896;SDS011;6516;35.028;32.372;2022-11-20T15:24:20;7.13;;;4.30;;